Time;durP1;ratioP1;P1;durP2;ratioP2;P2;SDS_P1;SDS_P2;PMS_P1;PMS_P2;Temp;Humidity;BMP_temperature;BMP_pressure;BME280_temperature;BME280_humidity;BME280_pressure;Samples;Min_cycle;Max_cycle;Signal;HPM_P1;HPM_P2
2021/11/01 00:01:09;;;;;;;3.83;1.33;;;10.90;99.90;;;;;;5011565;28;20500;-58
2021/11/01 00:03:37;;;;;;;5.53;1.60;;;10.90;99.90;;;;;;5012018;28;20441;-58
2021/11/01 00:06:05;;;;;;;7.90;2.50;;;10.90;99.90;;;;;;5011479;28;21005;-58
2021/11/01 00:08:33;;;;;;;3.60;1.53;;;10.90;99.90;;;;;;5029664;28;20944;-58
2021/11/01 00:11:00;;;;;;;4.30;1.40;;;10.90;99.90;;;;;;5049902;28;20458;-58
2021/11/01 00:13:27;;;;;;;7.50;1.57;;;10.90;99.90;;;;;;5051730;28;20473;-58
2021/11/01 00:15:54;;;;;;;5.93;1.80;;;10.90;99.90;;;;;;5023584;28;21020;-58
2021/11/01 00:18:21;;;;;;;6.80;1.93;;;10.90;99.90;;;;;;5011852;28;20428;-58
2021/11/01 00:20:48;;;;;;;5.63;2.40;;;11.00;99.90;;;;;;5011068;28;21021;-58
2021/11/01 00:23:14;;;;;;;8.57;2.77;;;10.90;99.90;;;;;;5011872;28;20435;-58
2021/11/01 00:25:41;;;;;;;3.63;1.60;;;10.90;99.90;;;;;;5011117;28;20475;-58
2021/11/01 00:28:11;;;;;;;5.13;1.57;;;10.90;99.90;;;;;;5014132;28;20461;-58
2021/11/01 00:30:38;;;;;;;6.97;2.00;;;10.90;99.90;;;;;;5015202;28;20464;-58
2021/11/01 00:33:05;;;;;;;5.43;2.40;;;10.80;99.90;;;;;;5015626;28;20425;-58
2021/11/01 00:35:32;;;;;;;2.23;1.10;;;10.80;99.90;;;;;;5014878;28;20456;-58
2021/11/01 00:37:59;;;;;;;6.53;1.83;;;10.80;99.90;;;;;;5015401;28;20915;-58
2021/11/01 00:40:26;;;;;;;6.10;1.30;;;10.70;99.90;;;;;;5015027;28;20830;-58
2021/11/01 00:42:53;;;;;;;5.43;2.33;;;10.70;99.90;;;;;;5040220;28;20427;-58
2021/11/01 00:45:20;;;;;;;6.33;2.73;;;10.70;99.90;;;;;;5031770;28;20460;-58
2021/11/01 00:47:46;;;;;;;4.90;2.57;;;10.80;99.90;;;;;;5015083;28;20463;-58
2021/11/01 00:50:15;;;;;;;6.23;2.20;;;10.80;99.90;;;;;;5014677;28;20985;-58
2021/11/01 00:52:41;;;;;;;12.10;2.60;;;10.70;99.90;;;;;;5015128;28;20428;-59
2021/11/01 00:55:18;;;;;;;5.60;2.13;;;10.70;99.90;;;;;;5014998;28;20455;-59
2021/11/01 00:57:45;;;;;;;7.90;1.97;;;10.70;99.90;;;;;;4997295;28;20432;-58
2021/11/01 01:00:12;;;;;;;3.47;1.70;;;10.60;99.90;;;;;;5018637;28;20464;-58
2021/11/01 01:02:39;;;;;;;6.20;2.20;;;10.50;99.90;;;;;;5022201;28;20425;-58
2021/11/01 01:05:06;;;;;;;4.07;1.50;;;10.40;99.90;;;;;;5015134;28;20538;-58
2021/11/01 01:07:33;;;;;;;3.70;2.00;;;10.30;99.90;;;;;;5015123;28;20429;-58
2021/11/01 01:10:00;;;;;;;6.13;1.90;;;10.20;99.90;;;;;;5014652;28;20764;-59
2021/11/01 01:12:27;;;;;;;4.93;2.33;;;10.10;99.90;;;;;;5015062;28;20416;-59
2021/11/01 01:14:59;;;;;;;6.13;2.37;;;10.00;99.90;;;;;;5014994;28;20552;-59
2021/11/01 01:17:26;;;;;;;5.37;1.50;;;9.90;99.90;;;;;;5014948;28;20916;-58
2021/11/01 01:20:06;;;;;;;4.80;2.00;;;9.90;99.90;;;;;;5014264;28;20455;-59
2021/11/01 01:22:34;;;;;;;3.00;1.70;;;9.90;99.90;;;;;;5015079;28;20419;-58
2021/11/01 01:25:14;;;;;;;7.33;2.10;;;9.90;99.90;;;;;;5014043;28;20943;-58
2021/11/01 01:27:42;;;;;;;5.00;3.00;;;9.90;99.90;;;;;;5014576;28;20440;-58
2021/11/01 01:30:10;;;;;;;5.50;1.50;;;9.90;99.90;;;;;;5014046;28;20441;-58
2021/11/01 01:32:38;;;;;;;6.20;2.37;;;9.90;99.90;;;;;;5014613;28;20425;-58
2021/11/01 01:35:06;;;;;;;4.33;1.50;;;9.90;99.90;;;;;;5014129;28;20457;-58
2021/11/01 01:37:33;;;;;;;4.20;1.63;;;9.80;99.90;;;;;;5014341;28;20429;-58
2021/11/01 01:40:00;;;;;;;3.33;1.97;;;9.80;99.90;;;;;;5013078;28;20425;-58
2021/11/01 01:42:27;;;;;;;3.80;1.50;;;9.80;99.90;;;;;;5031888;28;20484;-58
2021/11/01 01:44:54;;;;;;;4.93;2.10;;;9.80;99.90;;;;;;5039565;28;20838;-58
2021/11/01 01:47:21;;;;;;;6.50;2.47;;;9.70;99.90;;;;;;5014103;28;20508;-58
2021/11/01 01:49:47;;;;;;;5.90;1.40;;;9.70;99.90;;;;;;5014287;28;20461;-58
2021/11/01 01:52:15;;;;;;;7.80;1.83;;;9.70;99.90;;;;;;5014087;28;20465;-58
2021/11/01 01:54:42;;;;;;;3.33;1.70;;;9.80;99.90;;;;;;5014069;28;20449;-58
2021/11/01 01:57:08;;;;;;;4.63;1.50;;;9.90;99.90;;;;;;4995995;28;20479;-58
2021/11/01 01:59:35;;;;;;;2.40;1.67;;;10.00;99.90;;;;;;5014113;28;20961;-58
2021/11/01 02:02:03;;;;;;;9.00;1.80;;;10.10;99.90;;;;;;5023274;28;20455;-58
2021/11/01 02:04:30;;;;;;;8.33;2.83;;;10.10;99.90;;;;;;5033120;28;20448;-58
2021/11/01 02:07:22;;;;;;;7.63;2.70;;;10.20;99.90;;;;;;5013075;28;20831;-58
2021/11/01 02:09:58;;;;;;;6.00;2.60;;;10.20;99.90;;;;;;5013758;28;20494;-58
2021/11/01 02:12:49;;;;;;;8.13;2.50;;;10.20;99.90;;;;;;5013842;28;20451;-58
2021/11/01 02:15:27;;;;;;;11.40;3.00;;;10.20;99.90;;;;;;5013060;28;20464;-58
2021/11/01 02:17:56;;;;;;;7.67;2.70;;;10.40;99.90;;;;;;5013442;28;20408;-58
2021/11/01 02:20:35;;;;;;;6.07;2.30;;;10.40;99.90;;;;;;5013132;28;20459;-58
2021/11/01 02:23:42;;;;;;;6.17;2.97;;;10.30;99.90;;;;;;5013649;28;20428;-58
2021/11/01 02:26:12;;;;;;;5.03;3.00;;;10.20;99.90;;;;;;5012752;28;20468;-58
2021/11/01 02:28:41;;;;;;;10.87;3.30;;;10.10;99.90;;;;;;5013659;28;20471;-58
2021/11/01 02:31:11;;;;;;;8.27;2.90;;;10.00;99.90;;;;;;5012846;28;20468;-58
2021/11/01 02:33:39;;;;;;;4.50;2.50;;;10.00;99.90;;;;;;5013484;28;20417;-58
2021/11/01 02:36:06;;;;;;;5.20;3.43;;;10.10;99.90;;;;;;5015513;28;20471;-58
2021/11/01 02:38:33;;;;;;;12.03;2.57;;;10.10;99.90;;;;;;5019737;28;20432;-58
2021/11/01 02:41:18;;;;;;;4.53;2.30;;;10.10;99.90;;;;;;5013837;28;20468;-58
2021/11/01 02:43:52;;;;;;;4.17;2.50;;;10.20;99.90;;;;;;5035098;28;20444;-58
2021/11/01 02:46:19;;;;;;;4.47;1.80;;;10.30;99.90;;;;;;5012841;28;20464;-58
2021/11/01 02:48:50;;;;;;;5.30;2.20;;;10.30;99.90;;;;;;5013360;28;20811;-58
2021/11/01 02:51:18;;;;;;;3.30;1.90;;;10.30;99.90;;;;;;5012999;28;20461;-58
2021/11/01 02:53:47;;;;;;;4.07;2.27;;;10.30;99.90;;;;;;5013283;28;20431;-58
2021/11/01 02:56:16;;;;;;;3.80;1.90;;;10.30;99.90;;;;;;5012637;28;20457;-58
2021/11/01 02:58:44;;;;;;;4.70;1.97;;;10.30;99.90;;;;;;5012865;28;20421;-58
2021/11/01 03:01:16;;;;;;;3.80;2.33;;;10.30;99.90;;;;;;5032432;28;20467;-58
2021/11/01 03:03:44;;;;;;;2.20;1.80;;;10.20;99.90;;;;;;5032540;28;20424;-58
2021/11/01 03:06:15;;;;;;;5.27;1.57;;;10.20;99.90;;;;;;5030797;28;20459;-58
2021/11/01 03:08:43;;;;;;;3.57;2.10;;;10.20;99.90;;;;;;5032493;28;20468;-58
2021/11/01 03:11:12;;;;;;;9.23;1.93;;;10.20;99.90;;;;;;5032110;28;20630;-58
2021/11/01 03:13:39;;;;;;;7.73;2.53;;;10.20;99.90;;;;;;5030196;28;20523;-58
2021/11/01 03:16:07;;;;;;;3.50;1.43;;;10.20;99.90;;;;;;5012033;28;20830;-58
2021/11/01 03:18:44;;;;;;;4.87;1.60;;;10.20;99.90;;;;;;5012551;28;20850;-58
2021/11/01 03:21:16;;;;;;;2.43;1.53;;;10.20;99.90;;;;;;4999634;28;20460;-58
2021/11/01 03:23:47;;;;;;;9.17;2.53;;;10.20;99.90;;;;;;5012506;28;20429;-58
2021/11/01 03:26:19;;;;;;;5.57;1.97;;;10.20;99.90;;;;;;5011934;28;20461;-58
2021/11/01 03:28:51;;;;;;;6.30;2.00;;;10.20;99.90;;;;;;4994744;28;20469;-58
2021/11/01 03:31:21;;;;;;;5.50;2.10;;;10.10;99.90;;;;;;5011942;28;20982;-58
2021/11/01 03:33:51;;;;;;;5.27;2.07;;;10.10;99.90;;;;;;5012348;28;20421;-58
2021/11/01 03:36:19;;;;;;;3.93;1.80;;;10.10;99.90;;;;;;5011882;28;20523;-58
2021/11/01 03:38:47;;;;;;;5.60;2.20;;;10.10;99.90;;;;;;5012318;28;20432;-58
2021/11/01 03:41:16;;;;;;;10.13;1.87;;;10.10;99.90;;;;;;5011842;28;20866;-58
2021/11/01 03:43:54;;;;;;;2.70;1.70;;;10.20;99.90;;;;;;5038130;28;20437;-58
2021/11/01 03:46:29;;;;;;;5.77;2.17;;;10.20;99.90;;;;;;5011558;28;20470;-58
2021/11/01 03:48:56;;;;;;;5.10;2.53;;;10.20;99.90;;;;;;5012206;28;20488;-58
2021/11/01 03:51:39;;;;;;;10.87;2.80;;;10.10;99.90;;;;;;5026922;28;20452;-58
2021/11/01 03:54:07;;;;;;;4.33;1.50;;;10.20;99.90;;;;;;5034260;28;20445;-58
2021/11/01 03:56:36;;;;;;;5.80;2.07;;;10.20;99.90;;;;;;5031066;28;20467;-58
2021/11/01 03:59:03;;;;;;;7.17;2.70;;;10.20;99.90;;;;;;5016032;28;20448;-58
2021/11/01 04:01:30;;;;;;;6.43;2.63;;;10.20;99.90;;;;;;5011363;28;20457;-58
2021/11/01 04:03:59;;;;;;;6.43;2.10;;;10.10;99.90;;;;;;5026594;28;20478;-58
2021/11/01 04:06:27;;;;;;;3.57;2.07;;;10.20;99.90;;;;;;5028346;28;20464;-58
2021/11/01 04:08:56;;;;;;;7.70;1.90;;;10.20;99.90;;;;;;5031707;28;20464;-58
2021/11/01 04:11:23;;;;;;;4.57;1.80;;;10.20;99.90;;;;;;5031357;28;20464;-58
2021/11/01 04:13:56;;;;;;;6.77;2.73;;;10.20;99.90;;;;;;5027690;28;20437;-58
2021/11/01 04:16:27;;;;;;;6.17;1.77;;;10.20;99.90;;;;;;5013208;28;20827;-58
2021/11/01 04:19:02;;;;;;;7.50;2.40;;;10.20;99.90;;;;;;5012399;28;20791;-58
2021/11/01 04:21:29;;;;;;;7.23;2.20;;;10.30;99.90;;;;;;5011525;28;20489;-58
2021/11/01 04:23:58;;;;;;;6.50;2.60;;;10.30;99.90;;;;;;5012048;28;20791;-58
2021/11/01 04:26:26;;;;;;;4.33;1.90;;;10.30;99.90;;;;;;5011187;28;20579;-58
2021/11/01 04:28:53;;;;;;;5.27;2.30;;;10.30;99.90;;;;;;5011808;28;20460;-58
2021/11/01 04:31:45;;;;;;;4.00;2.07;;;10.30;99.90;;;;;;5011605;28;20460;-58
2021/11/01 04:34:14;;;;;;;6.00;1.83;;;10.30;99.90;;;;;;5011682;28;20440;-58
2021/11/01 04:36:41;;;;;;;9.80;2.30;;;10.30;99.90;;;;;;5028597;28;20451;-58
2021/11/01 04:39:12;;;;;;;2.20;1.43;;;10.30;99.90;;;;;;5031531;28;20432;-58
2021/11/01 04:42:05;;;;;;;3.33;2.20;;;10.30;99.90;;;;;;5033090;28;20456;-58
2021/11/01 04:55:10;;;;;;;5.23;1.90;;;10.30;99.90;;;;;;5011728;28;20456;-58
2021/11/01 04:57:38;;;;;;;7.07;1.70;;;10.20;99.90;;;;;;5011329;28;20431;-58
2021/11/01 05:00:06;;;;;;;4.33;2.07;;;10.20;99.90;;;;;;5010998;28;20942;-58
2021/11/01 05:02:35;;;;;;;4.80;1.83;;;10.20;99.90;;;;;;5011452;28;20429;-58
2021/11/01 05:05:02;;;;;;;2.33;1.23;;;10.10;99.90;;;;;;5011542;28;20876;-58
2021/11/01 05:07:29;;;;;;;10.20;1.50;;;10.10;99.90;;;;;;5011197;28;20440;-58
2021/11/01 05:10:06;;;;;;;7.03;2.20;;;10.10;99.90;;;;;;5010890;28;20468;-59
2021/11/01 05:12:39;;;;;;;7.77;2.07;;;10.10;99.90;;;;;;5011433;28;20417;-58
2021/11/01 05:15:10;;;;;;;5.73;1.60;;;10.10;99.90;;;;;;5013439;28;20441;-58
2021/11/01 05:20:28;;;;;;;8.23;2.43;;;10.20;99.90;;;;;;5018656;28;20519;-58
2021/11/01 05:25:34;;;;;;;7.40;2.40;;;10.20;99.90;;;;;;5033921;28;20467;-58
2021/11/01 05:28:19;;;;;;;6.20;1.70;;;10.20;99.90;;;;;;5030073;28;20436;-58
2021/11/01 05:35:46;;;;;;;4.60;1.97;;;10.10;99.90;;;;;;5014212;28;20468;-58
2021/11/01 05:38:13;;;;;;;5.00;1.60;;;10.10;99.90;;;;;;5014254;28;20440;-58
2021/11/01 05:40:40;;;;;;;5.67;2.43;;;10.00;99.90;;;;;;5014218;28;20834;-58
2021/11/01 05:43:07;;;;;;;3.27;1.60;;;10.00;99.90;;;;;;5042930;28;20431;-58
2021/11/01 05:45:34;;;;;;;5.87;2.03;;;9.90;99.90;;;;;;5015426;28;20584;-58
2021/11/01 05:48:01;;;;;;;3.97;1.80;;;10.00;99.90;;;;;;5014243;28;20427;-59
2021/11/01 05:50:31;;;;;;;5.63;1.37;;;9.90;99.90;;;;;;5015950;28;20974;-58
2021/11/01 05:53:00;;;;;;;9.40;1.73;;;10.00;99.90;;;;;;5015474;28;20425;-58
2021/11/01 05:58:07;;;;;;;7.63;1.63;;;10.00;99.90;;;;;;5054121;28;20419;-58
2021/11/01 06:06:52;;;;;;;4.80;1.60;;;9.90;99.90;;;;;;5011594;28;20476;-58
2021/11/01 06:09:51;;;;;;;3.83;1.63;;;10.00;99.90;;;;;;5011188;28;20532;-58
2021/11/01 06:14:25;;;;;;;5.07;2.17;;;10.00;99.90;;;;;;5013794;28;20552;-58
2021/11/01 06:16:52;;;;;;;3.80;1.77;;;10.00;99.90;;;;;;5013158;28;20475;-58
2021/11/01 06:19:19;;;;;;;2.60;1.53;;;10.10;99.90;;;;;;5013785;28;20471;-58
2021/11/01 06:21:48;;;;;;;4.53;2.00;;;10.00;99.90;;;;;;5010683;28;20468;-58
2021/11/01 06:26:52;;;;;;;4.57;1.50;;;10.00;99.90;;;;;;5011456;28;20558;-58
2021/11/01 06:29:21;;;;;;;1.67;1.47;;;10.00;99.90;;;;;;5013748;28;20822;-58
2021/11/01 06:31:59;;;;;;;5.50;1.73;;;10.00;99.90;;;;;;5012653;28;20461;-58
2021/11/01 06:38:58;;;;;;;7.10;1.83;;;10.00;99.90;;;;;;5013981;28;20440;-58
2021/11/01 06:43:05;;;;;;;3.57;1.50;;;10.10;99.90;;;;;;5033423;28;20968;-58
2021/11/01 06:51:43;;;;;;;7.63;1.63;;;10.10;99.90;;;;;;5012206;28;20838;-58
2021/11/01 06:54:51;;;;;;;6.27;1.33;;;10.10;99.90;;;;;;4995472;28;20457;-58
2021/11/01 07:16:41;;;;;;;7.07;2.70;;;10.30;99.90;;;;;;5011970;28;21002;-58
2021/11/01 07:38:59;;;;;;;3.63;1.80;;;10.60;99.90;;;;;;4932340;29;20433;-58
2021/11/01 08:24:08;;;;;;;4.87;2.50;;;11.30;99.90;;;;;;4982751;28;20797;-58
2021/11/01 09:03:29;;;;;;;12.03;1.73;;;11.90;99.90;;;;;;5015759;28;20424;-58
2021/11/01 09:25:19;;;;;;;3.60;1.30;;;12.30;99.90;;;;;;5015229;28;20463;-58
2021/11/01 09:28:03;;;;;;;1.50;1.00;;;12.30;99.90;;;;;;5040975;28;20500;-58
2021/11/01 09:41:01;;;;;;;2.50;1.40;;;12.10;99.90;;;;;;5014017;28;20468;-58
2021/11/01 09:43:28;;;;;;;3.83;1.40;;;12.20;99.90;;;;;;5014567;28;20432;-58
2021/11/01 09:45:57;;;;;;;2.50;2.27;;;12.10;99.90;;;;;;5030392;28;20471;-58
2021/11/01 09:48:26;;;;;;;5.40;2.00;;;12.10;99.90;;;;;;5036058;28;20937;-58
2021/11/01 09:50:54;;;;;;;4.33;1.80;;;12.10;99.90;;;;;;5029822;28;20895;-58
2021/11/01 09:53:29;;;;;;;4.73;1.10;;;12.10;99.90;;;;;;5014377;28;20513;-58
2021/11/01 10:01:15;;;;;;;8.97;1.63;;;12.40;99.90;;;;;;5012993;28;20994;-58
2021/11/01 10:03:50;;;;;;;2.73;0.97;;;12.60;99.90;;;;;;5014288;28;20955;-58
2021/11/01 10:06:21;;;;;;;5.03;0.90;;;12.80;99.90;;;;;;5013299;28;21077;-58
2021/11/01 10:08:56;;;;;;;2.63;1.43;;;12.80;99.90;;;;;;5021939;28;20422;-58
2021/11/01 10:11:27;;;;;;;4.33;1.10;;;12.90;99.90;;;;;;5048287;28;20501;-58
2021/11/01 10:14:04;;;;;;;6.90;1.83;;;12.90;99.90;;;;;;5029029;28;20438;-58
2021/11/01 10:19:41;;;;;;;4.83;1.00;;;13.00;97.90;;;;;;5053156;28;20423;-58
2021/11/01 10:22:24;;;;;;;5.73;1.13;;;12.90;97.40;;;;;;4995408;28;20457;-58
2021/11/01 10:24:53;;;;;;;2.33;0.80;;;12.90;96.90;;;;;;5013831;28;20443;-58
2021/11/01 10:27:33;;;;;;;4.00;1.07;;;12.90;96.30;;;;;;5011888;28;20535;-58
2021/11/01 10:30:06;;;;;;;1.37;0.80;;;13.00;96.60;;;;;;4996657;28;20447;-58
2021/11/01 10:32:43;;;;;;;1.33;0.87;;;13.00;96.60;;;;;;5013457;28;20435;-58
2021/11/01 10:35:22;;;;;;;2.60;0.93;;;13.10;96.70;;;;;;5015990;28;20491;-58
2021/11/01 10:38:12;;;;;;;1.83;0.70;;;13.30;96.10;;;;;;5013206;28;20806;-58
2021/11/01 11:14:41;;;;;;;2.17;0.80;;;13.50;90.70;;;;;;5021138;28;20471;-58
2021/11/01 11:20:05;;;;;;;4.30;1.60;;;13.50;89.80;;;;;;5042419;28;20532;-58
2021/11/01 11:28:53;;;;;;;2.93;1.70;;;13.80;88.60;;;;;;4951919;29;20577;-58
2021/11/01 11:37:09;;;;;;;5.03;1.67;;;13.90;88.50;;;;;;4992545;28;20506;-58
2021/11/01 11:48:16;;;;;;;4.43;1.00;;;14.20;83.20;;;;;;5012145;28;20441;-58
2021/11/01 11:50:45;;;;;;;4.17;1.00;;;14.20;79.80;;;;;;5025376;28;20476;-58
2021/11/01 11:53:14;;;;;;;5.47;1.33;;;14.20;80.60;;;;;;4994700;28;20779;-58
2021/11/01 11:55:43;;;;;;;3.40;1.40;;;14.10;81.10;;;;;;5044353;28;20462;-58
2021/11/01 11:58:13;;;;;;;2.50;1.00;;;14.20;79.80;;;;;;5051416;28;20819;-58
2021/11/01 12:00:41;;;;;;;1.90;1.43;;;14.20;80.60;;;;;;5044753;28;20467;-58
2021/11/01 12:03:19;;;;;;;1.70;1.30;;;14.20;79.70;;;;;;5051636;28;20508;-58
2021/11/01 12:08:36;;;;;;;0.90;0.67;;;14.10;79.20;;;;;;5031459;28;20427;-59
2021/11/01 12:11:18;;;;;;;1.93;1.17;;;14.10;79.40;;;;;;5034018;28;20467;-58
2021/11/01 12:19:08;;;;;;;2.83;1.20;;;14.10;78.10;;;;;;5030236;28;20435;-58
2021/11/01 12:21:39;;;;;;;1.93;0.83;;;14.10;78.00;;;;;;5047322;28;20562;-58
2021/11/01 12:24:10;;;;;;;2.40;0.80;;;14.20;79.00;;;;;;5032734;28;20545;-58
2021/11/01 12:26:41;;;;;;;1.87;1.00;;;14.20;76.60;;;;;;5030468;28;20821;-58
2021/11/01 12:29:11;;;;;;;2.20;0.90;;;14.20;76.50;;;;;;5055267;28;20420;-58
2021/11/01 12:31:38;;;;;;;3.13;1.17;;;14.20;75.70;;;;;;5047890;28;20467;-58
2021/11/01 12:34:19;;;;;;;7.13;1.33;;;14.20;76.80;;;;;;5037466;28;20995;-58
2021/11/01 12:37:00;;;;;;;2.90;0.97;;;14.10;78.60;;;;;;5016401;28;20530;-58
2021/11/01 12:58:52;;;;;;;8.00;2.37;;;14.10;77.20;;;;;;5054948;28;20439;-58
2021/11/01 13:01:21;;;;;;;6.87;1.00;;;14.30;76.60;;;;;;5041184;28;20455;-58
2021/11/01 13:03:56;;;;;;;1.50;0.90;;;14.40;77.50;;;;;;5055296;28;20419;-58
2021/11/01 13:06:37;;;;;;;1.10;0.90;;;14.40;74.50;;;;;;5032701;28;20517;-58
2021/11/01 13:09:10;;;;;;;4.93;0.90;;;14.40;74.60;;;;;;5034841;28;20430;-58
2021/11/01 13:11:53;;;;;;;3.90;1.07;;;14.50;75.60;;;;;;5034446;28;20480;-58
2021/11/01 13:14:46;;;;;;;3.70;1.10;;;14.60;76.60;;;;;;5016136;28;20475;-58
2021/11/01 13:20:05;;;;;;;3.77;1.40;;;14.30;71.90;;;;;;5028730;28;20531;-58
2021/11/01 13:22:52;;;;;;;1.80;0.70;;;14.30;73.70;;;;;;5014689;28;20475;-58
2021/11/01 13:25:29;;;;;;;1.03;0.93;;;14.30;76.20;;;;;;5014586;28;20943;-58
2021/11/01 13:28:25;;;;;;;3.17;1.10;;;14.30;74.90;;;;;;5014829;28;20443;-58
2021/11/01 13:36:51;;;;;;;1.87;1.67;;;14.40;75.90;;;;;;5012396;28;20544;-58
2021/11/01 13:39:26;;;;;;;3.27;1.13;;;14.50;75.40;;;;;;4997150;28;20436;-58
2021/11/01 13:41:54;;;;;;;2.80;0.90;;;14.60;74.40;;;;;;5018653;28;20467;-58
2021/11/01 13:44:23;;;;;;;2.80;1.20;;;14.60;73.10;;;;;;5016858;28;20874;-58
2021/11/01 13:47:00;;;;;;;2.43;1.30;;;14.60;75.20;;;;;;5013694;28;20469;-58
2021/11/01 13:49:31;;;;;;;1.17;0.60;;;14.60;74.70;;;;;;5014157;28;20490;-58
2021/11/01 13:52:54;;;;;;;4.33;1.07;;;14.60;74.60;;;;;;5033369;28;21005;-58
2021/11/01 13:57:38;;;;;;;3.20;1.00;;;14.40;70.90;;;;;;5035813;28;20498;-58
2021/11/01 14:00:27;;;;;;;2.37;1.00;;;14.40;73.40;;;;;;5013506;28;20444;-58
2021/11/01 14:03:13;;;;;;;5.60;1.30;;;14.50;72.10;;;;;;5014152;28;20432;-58
2021/11/01 14:11:33;;;;;;;2.50;1.10;;;14.20;73.10;;;;;;5015512;28;20579;-58
2021/11/01 14:14:14;;;;;;;3.13;1.27;;;14.20;75.30;;;;;;5011692;28;20445;-58
2021/11/01 14:30:32;;;;;;;1.43;0.90;;;14.20;75.60;;;;;;5024928;28;20491;-58
2021/11/01 15:08:31;;;;;;;3.27;1.30;;;13.70;77.40;;;;;;5012929;28;20783;-58
2021/11/01 15:11:15;;;;;;;1.80;0.80;;;13.60;77.30;;;;;;5047287;28;20893;-58
2021/11/01 15:14:06;;;;;;;1.27;1.10;;;13.50;77.40;;;;;;5036051;28;20543;-58
2021/11/01 15:19:18;;;;;;;4.30;1.10;;;13.40;78.00;;;;;;5012960;28;20422;-58
2021/11/01 15:31:02;;;;;;;1.67;0.90;;;13.40;79.10;;;;;;5012455;28;20500;-58
2021/11/01 15:32:50;;;;;;;6.73;1.30;;;13.40;79.90;;;;;;5012105;28;20522;-58
2021/11/01 15:35:42;;;;;;;4.97;0.90;;;13.30;79.70;;;;;;5016240;28;20474;-58
2021/11/01 16:19:34;;;;;;;6.07;1.80;;;12.30;89.70;;;;;;5051682;28;20463;-58
2021/11/01 16:22:02;;;;;;;7.50;1.73;;;12.30;90.30;;;;;;5011285;28;20476;-58
2021/11/01 16:24:29;;;;;;;6.20;2.17;;;12.30;90.40;;;;;;5011978;28;20462;-58
2021/11/01 16:26:57;;;;;;;5.23;1.90;;;12.30;90.60;;;;;;5011029;28;20469;-58
2021/11/01 16:29:30;;;;;;;3.20;1.80;;;12.20;91.10;;;;;;5012013;28;20426;-58
2021/11/01 16:32:04;;;;;;;4.60;2.20;;;12.20;91.40;;;;;;5011181;28;20466;-58
2021/11/01 16:34:32;;;;;;;4.40;2.40;;;12.20;91.30;;;;;;5011682;28;20803;-58
2021/11/01 16:39:49;;;;;;;8.00;2.90;;;12.10;91.60;;;;;;5031583;28;20822;-58
2021/11/01 16:42:28;;;;;;;7.10;3.00;;;12.10;92.10;;;;;;5028193;28;20479;-58
2021/11/01 16:45:08;;;;;;;7.60;2.50;;;12.00;92.10;;;;;;5011644;28;20453;-58
2021/11/01 16:47:35;;;;;;;9.23;3.80;;;12.00;92.60;;;;;;5049443;28;20548;-58
2021/11/01 16:50:05;;;;;;;6.10;3.20;;;11.90;92.90;;;;;;5045127;28;20455;-59
2021/11/01 16:52:33;;;;;;;5.70;3.33;;;11.90;93.40;;;;;;5013765;28;20471;-58
2021/11/01 16:55:03;;;;;;;7.50;3.60;;;11.90;93.30;;;;;;5031470;28;20826;-58
2021/11/01 16:57:42;;;;;;;6.60;4.20;;;11.80;93.90;;;;;;5030974;28;20804;-58
2021/11/01 17:03:52;;;;;;;6.70;2.43;;;11.80;94.60;;;;;;5011711;28;20451;-58
2021/11/01 17:06:31;;;;;;;7.03;2.83;;;11.70;94.60;;;;;;5010413;28;20465;-58
2021/11/01 17:09:17;;;;;;;5.80;2.83;;;11.70;96.00;;;;;;5012085;28;20517;-58
2021/11/01 17:28:44;;;;;;;6.27;3.30;;;11.60;96.40;;;;;;5014683;28;20432;-58
2021/11/01 17:37:24;;;;;;;5.70;3.90;;;11.50;96.80;;;;;;5013337;28;20481;-58
2021/11/01 18:38:50;;;;;;;5.70;2.30;;;11.00;99.90;;;;;;5013182;28;20425;-58
2021/11/01 18:41:23;;;;;;;5.60;1.87;;;11.00;99.90;;;;;;5010835;28;20465;-58
2021/11/01 18:45:03;;;;;;;3.30;1.87;;;11.00;99.90;;;;;;5013435;28;20421;-58
2021/11/01 18:52:18;;;;;;;3.83;2.10;;;10.90;99.90;;;;;;5012506;28;21013;-58
2021/11/01 18:54:53;;;;;;;6.63;2.70;;;10.90;99.90;;;;;;5013105;28;20825;-58
2021/11/01 18:57:27;;;;;;;3.97;2.27;;;10.90;99.90;;;;;;5012382;28;20850;-58
2021/11/01 19:00:02;;;;;;;4.40;2.60;;;10.80;99.90;;;;;;5013289;28;20452;-58
2021/11/01 19:07:58;;;;;;;3.60;1.90;;;10.80;99.90;;;;;;5012686;28;20427;-58
2021/11/01 20:04:05;;;;;;;2.80;2.30;;;9.80;99.90;;;;;;5013913;28;20432;-58
2021/11/01 20:06:51;;;;;;;3.57;2.77;;;9.90;99.90;;;;;;5014245;28;20555;-58
2021/11/01 20:15:01;;;;;;;3.43;1.90;;;10.00;99.90;;;;;;5012057;28;20461;-58
2021/11/01 21:25:12;;;;;;;3.77;2.30;;;9.70;99.90;;;;;;5014554;28;20445;-58
2021/11/01 21:27:40;;;;;;;7.47;2.17;;;9.70;99.90;;;;;;5014750;28;20479;-58
2021/11/01 21:30:09;;;;;;;5.43;2.60;;;9.80;99.90;;;;;;4997132;28;20444;-58
2021/11/01 21:32:35;;;;;;;10.50;2.60;;;9.80;99.90;;;;;;4997228;28;20441;-58
2021/11/01 21:35:04;;;;;;;4.80;3.50;;;9.80;99.90;;;;;;5014886;28;20461;-58
2021/11/01 21:37:31;;;;;;;6.80;2.60;;;9.90;99.90;;;;;;5014359;28;20448;-58
2021/11/01 21:40:00;;;;;;;4.13;2.07;;;9.90;99.90;;;;;;5014750;28;20517;-58
2021/11/01 21:42:29;;;;;;;3.50;3.17;;;9.80;99.90;;;;;;5013793;28;20449;-58
2021/11/01 21:44:56;;;;;;;10.40;2.90;;;9.80;99.90;;;;;;5033633;28;20999;-58
2021/11/01 21:47:23;;;;;;;8.77;2.80;;;9.80;99.90;;;;;;5051171;28;20464;-58
2021/11/01 21:49:55;;;;;;;5.37;3.17;;;9.80;99.90;;;;;;5047294;28;20506;-58
2021/11/01 21:52:22;;;;;;;8.50;2.83;;;9.80;99.90;;;;;;4996431;28;20457;-58
2021/11/01 21:54:55;;;;;;;5.97;3.33;;;9.80;99.90;;;;;;5014273;28;20469;-58
2021/11/01 21:57:27;;;;;;;9.53;3.70;;;9.70;99.90;;;;;;5028909;28;21134;-58
2021/11/01 22:21:39;;;;;;;7.37;2.57;;;9.20;99.90;;;;;;4995834;28;21024;-58
2021/11/01 22:24:17;;;;;;;4.63;2.43;;;9.20;99.90;;;;;;5013721;28;20427;-58
2021/11/01 22:40:21;;;;;;;5.70;2.60;;;9.00;99.90;;;;;;5014062;28;20421;-58
2021/11/01 22:45:54;;;;;;;4.10;2.57;;;8.90;99.90;;;;;;4978431;28;20453;-58
2021/11/01 22:56:48;;;;;;;6.47;2.53;;;8.70;99.90;;;;;;5012343;28;20502;-58
2021/11/01 22:59:17;;;;;;;6.27;2.40;;;8.70;99.90;;;;;;5013149;28;20837;-58
2021/11/01 23:01:47;;;;;;;8.33;2.43;;;8.70;99.90;;;;;;5012448;28;20560;-58
2021/11/01 23:04:52;;;;;;;3.10;1.60;;;8.70;99.90;;;;;;5013079;28;20872;-58
2021/11/01 23:31:26;;;;;;;3.87;1.27;;;9.00;99.90;;;;;;5012774;28;20531;-58
2021/11/01 23:32:02;;;;;;;5.00;2.20;;;9.10;99.90;;;;;;5011892;28;20848;-58
2021/11/01 23:34:29;;;;;;;2.63;1.80;;;9.10;99.90;;;;;;5012305;28;20472;-57
2021/11/01 23:36:56;;;;;;;1.93;1.20;;;9.10;99.90;;;;;;5012297;28;20461;-58
2021/11/01 23:39:24;;;;;;;5.30;1.77;;;9.10;99.90;;;;;;5012392;28;20839;-58
2021/11/01 23:41:52;;;;;;;4.63;1.87;;;9.10;99.90;;;;;;5011933;28;20468;-58
2021/11/01 23:44:21;;;;;;;3.37;1.73;;;9.10;99.90;;;;;;5012357;28;20508;-58
2021/11/01 23:46:48;;;;;;;2.60;1.77;;;9.00;99.90;;;;;;5037239;28;20513;-58
2021/11/01 23:49:16;;;;;;;4.43;1.90;;;8.90;99.90;;;;;;5051993;28;20922;-57
2021/11/01 23:52:00;;;;;;;3.63;1.50;;;8.80;99.90;;;;;;5013695;28;20468;-58
2021/11/01 23:54:38;;;;;;;2.33;1.23;;;8.70;99.90;;;;;;5031135;28;20478;-58
2021/11/01 23:57:06;;;;;;;4.20;1.50;;;8.70;99.90;;;;;;5031273;28;20482;-57
2021/11/01 23:59:33;;;;;;;1.40;1.17;;;8.60;99.90;;;;;;5024225;28;20448;-58
